Time;durP1;ratioP1;P1;durP2;ratioP2;P2;SDS_P1;SDS_P2;PMS_P1;PMS_P2;Temp;Humidity;BMP_temperature;BMP_pressure;BME280_temperature;BME280_humidity;BME280_pressure;Samples;Min_cycle;Max_cycle;Signal;HPM_P1;HPM_P2
2023/08/25 00:00:41;;;;;;;4.35;1.33;;;;;;;19.63;67.96;99906.72;20843069;28;20327;-82
2023/08/25 00:10:43;;;;;;;2.40;1.13;;;;;;;19.20;69.35;99883.66;20837344;28;20228;-84
2023/08/25 00:20:46;;;;;;;3.55;1.50;;;;;;;19.48;67.43;99862.22;20853914;28;20228;-83
2023/08/25 00:30:48;;;;;;;3.10;1.38;;;;;;;19.32;66.56;99860.53;20839458;28;20292;-82
2023/08/25 00:40:51;;;;;;;3.65;1.63;;;;;;;19.29;66.21;99838.50;20825653;28;20227;-83
2023/08/25 00:50:54;;;;;;;2.40;1.73;;;;;;;19.28;65.91;99839.72;20840551;28;20225;-82
2023/08/25 01:00:57;;;;;;;2.67;1.50;;;;;;;19.59;65.07;99829.66;20838061;28;20224;-83
2023/08/25 01:11:08;;;;;;;1.70;1.20;;;;;;;19.08;66.11;99820.44;20837033;28;20200;-83
2023/08/25 01:21:12;;;;;;;3.60;1.30;;;;;;;19.60;64.20;99842.72;20842182;28;20229;-83
2023/08/25 01:31:15;;;;;;;2.35;1.27;;;;;;;20.07;62.57;99837.94;20827788;28;20688;-84
2023/08/25 01:41:23;;;;;;;2.63;0.90;;;;;;;20.51;60.63;99833.91;20833865;28;20230;-82
2023/08/25 01:51:26;;;;;;;7.05;1.45;;;;;;;19.48;65.43;99828.00;20829180;28;20243;-84
2023/08/25 02:01:30;;;;;;;1.88;1.58;;;;;;;19.82;64.25;99826.44;20833612;28;20659;-81
2023/08/25 02:11:33;;;;;;;3.75;1.83;;;;;;;19.26;66.28;99822.16;20827404;28;20200;-82
2023/08/25 02:21:35;;;;;;;2.53;1.48;;;;;;;19.54;65.52;99829.22;21268213;23;20228;-81
2023/08/25 02:31:38;;;;;;;3.58;1.67;;;;;;;19.47;65.48;99815.75;20748160;28;20284;-80
2023/08/25 02:41:40;;;;;;;2.17;1.85;;;;;;;19.18;66.44;99820.50;20748228;28;20311;-81
2023/08/25 02:51:43;;;;;;;3.83;1.98;;;;;;;19.35;66.02;99815.31;20748016;28;20243;-84
2023/08/25 03:01:45;;;;;;;5.45;2.70;;;;;;;19.30;66.27;99810.78;20747767;28;20213;-81
2023/08/25 03:11:48;;;;;;;4.70;2.45;;;;;;;19.09;67.38;99794.38;20744401;28;20216;-83
2023/08/25 03:21:50;;;;;;;4.60;2.03;;;;;;;18.43;70.17;99802.06;20793610;28;20713;-82
2023/08/25 03:31:53;;;;;;;3.90;2.05;;;;;;;18.72;68.94;99776.63;20840786;28;20565;-82
2023/08/25 03:41:55;;;;;;;5.25;2.33;;;;;;;18.57;69.48;99778.56;20844809;28;20231;-84
2023/08/25 03:51:58;;;;;;;4.93;2.88;;;;;;;18.31;70.88;99781.63;20842674;28;20207;-84
2023/08/25 04:02:01;;;;;;;7.30;3.15;;;;;;;18.35;70.27;99765.38;20837322;28;20239;-80
2023/08/25 04:12:04;;;;;;;4.88;2.75;;;;;;;18.47;69.93;99768.72;20834818;28;20208;-82
2023/08/25 04:22:06;;;;;;;7.07;3.25;;;;;;;18.49;69.75;99772.00;20834964;28;20220;-81
2023/08/25 04:32:09;;;;;;;5.53;3.10;;;;;;;18.37;70.25;99760.91;20837563;28;20319;-81
2023/08/25 04:42:11;;;;;;;6.47;3.20;;;;;;;18.13;70.93;99772.94;20835379;28;20676;-83
2023/08/25 04:52:14;;;;;;;7.60;3.47;;;;;;;18.27;71.10;99768.19;20836335;28;20232;-81
2023/08/25 05:02:17;;;;;;;4.88;3.08;;;;;;;18.36;70.73;99767.00;20835241;28;20251;-82
2023/08/25 05:12:20;;;;;;;6.15;3.20;;;;;;;18.80;68.87;99776.28;20838061;28;20603;-81
2023/08/25 05:22:22;;;;;;;5.43;3.28;;;;;;;18.73;69.42;99761.16;20816154;28;20585;-80
2023/08/25 05:32:25;;;;;;;7.70;3.13;;;;;;;18.51;70.36;99769.56;20830421;28;20283;-81
2023/08/25 05:42:27;;;;;;;8.02;3.60;;;;;;;18.89;68.78;99761.66;20836660;28;20319;-86
2023/08/25 05:52:30;;;;;;;8.70;4.47;;;;;;;18.82;70.44;99755.94;20834906;28;20209;-85
2023/08/25 06:02:32;;;;;;;8.88;5.40;;;;;;;19.06;68.53;99763.78;20834142;28;20617;-82
2023/08/25 06:12:36;;;;;;;8.82;6.35;;;;;;;19.15;69.39;99763.41;20838638;28;20284;-85
2023/08/25 06:22:37;;;;;;;9.45;5.38;;;;;;;18.92;70.97;99738.06;20837569;28;20225;-78
2023/08/25 06:32:40;;;;;;;9.00;7.95;;;;;;;19.91;67.21;99711.81;20821550;28;20698;-79
2023/08/25 06:42:42;;;;;;;8.27;6.80;;;;;;;19.96;67.43;99720.03;20828248;28;20259;-79
2023/08/25 06:52:46;;;;;;;9.80;7.63;;;;;;;20.18;67.34;99717.97;20833625;28;20501;-82
2023/08/25 07:02:47;;;;;;;9.65;7.32;;;;;;;20.06;65.75;99744.91;20833590;28;20220;-86
2023/08/25 07:12:51;;;;;;;16.70;7.07;;;;;;;20.61;66.74;99745.28;20834559;28;20224;-84
2023/08/25 07:22:52;;;;;;;11.15;6.72;;;;;;;20.16;65.79;99795.50;20838785;28;20256;-83
2023/08/25 07:32:55;;;;;;;8.48;3.58;;;;;;;19.94;68.03;99709.00;20832977;28;20291;-87
2023/08/25 07:43:01;;;;;;;8.27;3.55;;;;;;;20.51;66.55;99666.06;20821369;28;20227;-85
2023/08/25 07:53:04;;;;;;;6.47;3.58;;;;;;;20.10;67.81;99799.19;20823065;28;20260;-83
2023/08/25 08:03:08;;;;;;;6.10;3.55;;;;;;;20.31;66.03;99837.16;20831108;28;20327;-83
2023/08/25 08:13:11;;;;;;;7.90;5.30;;;;;;;19.20;73.28;99862.88;20838021;28;20255;-84
2023/08/25 08:23:13;;;;;;;8.98;5.20;;;;;;;19.32;74.88;99874.78;20830773;28;20225;-84
2023/08/25 08:33:17;;;;;;;7.63;6.40;;;;;;;18.97;76.19;99872.50;20839082;28;20295;-82
2023/08/25 08:43:20;;;;;;;7.72;4.78;;;;;;;18.30;80.26;99809.31;20833139;28;20347;-82
2023/08/25 08:53:25;;;;;;;9.90;4.55;;;;;;;18.07;81.81;99757.41;20841827;28;20208;-79
2023/08/25 09:03:33;;;;;;;5.43;3.72;;;;;;;18.32;81.28;99788.97;20841246;28;20248;-79
2023/08/25 09:13:36;;;;;;;9.60;6.82;;;;;;;18.72;79.36;99805.13;20835333;28;20201;-79
2023/08/25 09:23:51;;;;;;;5.10;4.13;;;;;;;18.47;80.52;99771.56;20827740;28;20240;-79
2023/08/25 09:34:01;;;;;;;6.88;5.20;;;;;;;18.42;81.13;99806.13;20832887;28;20291;-79
2023/08/25 09:44:03;;;;;;;8.02;5.63;;;;;;;19.12;78.76;99755.66;20828245;28;20224;-79
2023/08/25 09:54:09;;;;;;;9.27;5.65;;;;;;;19.48;77.43;99867.94;20814964;28;20501;-79
2023/08/25 10:04:11;;;;;;;7.75;5.75;;;;;;;19.44;77.47;99750.91;20811979;28;20242;-80
2023/08/25 10:14:14;;;;;;;8.23;6.95;;;;;;;19.72;78.00;99830.09;20806930;28;20207;-80
2023/08/25 10:24:19;;;;;;;8.70;5.05;;;;;;;18.83;80.16;99845.97;20856817;28;20251;-81
2023/08/25 10:34:36;;;;;;;7.53;4.88;;;;;;;19.21;77.17;99865.34;20825134;28;20207;-83
2023/08/25 10:44:40;;;;;;;7.20;5.88;;;;;;;18.54;80.93;99881.94;20830696;28;20224;-84
2023/08/25 10:54:43;;;;;;;6.78;5.20;;;;;;;17.96;84.20;99842.72;20832184;28;20254;-84
2023/08/25 11:04:47;;;;;;;6.28;4.47;;;;;;;17.93;83.20;99867.09;20825446;28;20220;-84
2023/08/25 11:14:51;;;;;;;8.70;4.00;;;;;;;18.14;83.12;99916.97;20805769;28;20620;-83
2023/08/25 11:24:54;;;;;;;2.88;2.25;;;;;;;17.84;80.19;99900.72;20810143;28;20224;-86
2023/08/25 11:35:03;;;;;;;2.35;1.65;;;;;;;17.45;79.56;99834.81;20808544;28;20197;-85
2023/08/25 11:45:08;;;;;;;3.25;1.30;;;;;;;17.98;78.82;99780.53;20812319;28;20229;-84
2023/08/25 11:55:16;;;;;;;4.00;2.00;;;;;;;19.25;75.31;99791.16;20817796;28;20196;-83
2023/08/25 12:05:18;;;;;;;2.85;1.88;;;;;;;18.76;74.94;99845.91;20809961;28;20220;-83
2023/08/25 12:15:22;;;;;;;3.42;1.00;;;;;;;18.67;77.31;99745.69;20806642;28;20200;-82
2023/08/25 12:25:23;;;;;;;1.70;1.25;;;;;;;18.95;78.50;99705.91;20805345;28;20220;-82
2023/08/25 12:35:27;;;;;;;1.52;1.42;;;;;;;20.12;73.76;99711.06;20806613;28;20197;-84
2023/08/25 12:45:29;;;;;;;3.28;1.42;;;;;;;19.87;75.51;99737.53;20805579;28;20227;-82
2023/08/25 12:55:33;;;;;;;1.77;1.20;;;;;;;20.01;74.12;99697.56;20796049;28;20197;-83
2023/08/25 13:05:35;;;;;;;2.58;1.10;;;;;;;20.15;72.36;99702.44;20804457;28;20586;-82
2023/08/25 13:15:38;;;;;;;1.52;1.38;;;;;;;20.78;69.61;99685.63;20794396;28;20220;-82
2023/08/25 13:25:40;;;;;;;3.47;1.60;;;;;;;19.98;76.44;99683.31;20800848;28;20240;-83
2023/08/25 13:35:55;;;;;;;2.65;1.45;;;;;;;20.73;74.64;99675.41;20796234;28;20204;-83
2023/08/25 13:46:01;;;;;;;3.55;1.60;;;;;;;21.09;73.75;99690.34;20810202;28;20213;-84
2023/08/25 13:56:05;;;;;;;5.90;1.23;;;;;;;20.97;73.47;99685.09;20805569;28;20634;-84
2023/08/25 14:06:08;;;;;;;4.22;1.70;;;;;;;21.13;70.83;99653.97;20835827;28;20604;-83
2023/08/25 14:16:12;;;;;;;2.75;1.10;;;;;;;22.34;66.21;99656.69;20811728;28;20243;-85
2023/08/25 14:26:13;;;;;;;2.35;1.55;;;;;;;21.77;68.67;99653.53;20814273;28;20733;-85
2023/08/25 14:36:17;;;;;;;5.13;3.80;;;;;;;22.06;64.88;99651.25;20809366;28;20544;-84
2023/08/25 14:46:19;;;;;;;3.35;1.98;;;;;;;22.48;65.59;99664.34;20817520;28;20216;-85
2023/08/25 14:56:22;;;;;;;2.97;1.80;;;;;;;22.09;63.18;99664.72;20810219;28;20589;-85
2023/08/25 15:06:24;;;;;;;1.67;1.40;;;;;;;23.05;62.22;99663.69;20813662;28;20220;-84
2023/08/25 15:16:28;;;;;;;2.80;2.35;;;;;;;22.92;60.67;99654.00;20814962;28;20593;-85
2023/08/25 15:26:30;;;;;;;4.03;1.90;;;;;;;23.15;60.27;99656.97;20825963;28;20232;-86
2023/08/25 15:48:02;;;;;;;2.78;1.90;;;;;;;22.49;63.00;99648.78;21056191;27;20641;-87
2023/08/25 15:58:05;;;;;;;3.38;2.13;;;;;;;22.66;62.83;99638.34;20972010;28;20779;-85
2023/08/25 16:08:10;;;;;;;2.78;2.47;;;;;;;23.42;60.21;99637.69;20944742;28;21058;-87
2023/08/25 16:18:11;;;;;;;2.95;2.10;;;;;;;22.95;63.77;99636.72;20955577;28;20198;-85
2023/08/25 16:28:15;;;;;;;2.63;2.42;;;;;;;21.78;66.14;99663.75;20927312;28;20219;-84
2023/08/25 16:38:17;;;;;;;3.42;2.42;;;;;;;22.65;64.60;99623.19;20944962;28;20195;-85
2023/08/25 16:48:22;;;;;;;5.28;3.15;;;;;;;21.89;65.98;99621.53;20902502;28;20228;-84
2023/08/25 16:58:24;;;;;;;4.95;3.80;;;;;;;22.03;65.56;99621.41;20895094;28;20655;-84
2023/08/25 17:08:28;;;;;;;7.57;4.00;;;;;;;21.61;68.49;99638.94;20909308;28;20227;-86
2023/08/25 17:18:30;;;;;;;4.55;3.67;;;;;;;22.08;66.44;99640.97;20897808;28;20200;-86
2023/08/25 17:28:33;;;;;;;4.80;4.15;;;;;;;21.75;67.59;99610.19;20896224;28;20652;-89
2023/08/25 17:38:35;;;;;;;7.35;4.78;;;;;;;21.86;67.13;99619.50;20895625;28;20235;-84
2023/08/25 17:48:39;;;;;;;5.40;4.90;;;;;;;21.81;68.40;99625.72;20886181;28;20267;-86
2023/08/25 17:58:40;;;;;;;6.05;5.05;;;;;;;21.98;67.12;99636.19;20891331;28;20192;-87
2023/08/25 18:08:44;;;;;;;6.95;6.22;;;;;;;21.78;69.79;99653.16;20878118;28;20220;-86
2023/08/25 18:18:46;;;;;;;6.30;5.70;;;;;;;21.41;70.57;99662.41;20882232;28;20712;-84
2023/08/25 18:28:50;;;;;;;8.50;6.53;;;;;;;21.33;70.73;99663.69;20890377;28;20235;-83
2023/08/25 18:38:51;;;;;;;7.35;6.13;;;;;;;21.03;72.47;99684.28;20888103;28;20234;-81
2023/08/25 18:48:55;;;;;;;7.38;6.68;;;;;;;21.57;70.58;99681.91;20872585;28;20234;-81
2023/08/25 18:58:57;;;;;;;6.97;6.05;;;;;;;21.38;71.05;99688.19;20876458;28;20211;-82
2023/08/25 19:09:00;;;;;;;7.70;6.10;;;;;;;21.20;72.96;99702.59;20872849;28;20223;-83
2023/08/25 19:19:02;;;;;;;7.07;6.38;;;;;;;20.87;73.28;99708.84;20873029;28;20466;-83
2023/08/25 19:29:06;;;;;;;6.95;6.20;;;;;;;20.88;73.52;99725.59;20866935;28;20227;-83
2023/08/25 19:39:08;;;;;;;6.35;5.47;;;;;;;20.76;73.57;99742.41;20900306;28;20224;-85
2023/08/25 19:49:11;;;;;;;6.65;5.63;;;;;;;20.76;73.02;99719.53;20896315;28;20249;-84
2023/08/25 19:59:13;;;;;;;5.90;5.30;;;;;;;20.92;71.20;99717.00;20902999;28;20199;-87
2023/08/25 20:09:17;;;;;;;7.05;5.35;;;;;;;20.81;71.00;99734.19;20911247;28;20631;-84
2023/08/25 20:19:18;;;;;;;8.02;6.25;;;;;;;20.36;72.50;99731.03;20910461;28;20188;-84
2023/08/25 20:29:22;;;;;;;9.23;5.90;;;;;;;20.66;70.53;99727.69;20906130;28;20327;-85
2023/08/25 20:39:23;;;;;;;6.53;5.75;;;;;;;20.18;72.33;99753.06;20916504;28;20505;-84
2023/08/25 20:49:26;;;;;;;8.70;6.57;;;;;;;19.81;72.63;99767.72;20916620;28;20219;-84
2023/08/25 20:59:28;;;;;;;6.55;5.90;;;;;;;20.17;70.66;99767.75;20901666;28;20512;-83
2023/08/25 21:09:31;;;;;;;8.13;6.70;;;;;;;20.03;71.30;99757.97;20922181;28;20223;-83
2023/08/25 21:19:34;;;;;;;13.43;7.75;;;;;;;19.48;73.02;99759.50;20916983;28;20215;-85
2023/08/25 21:29:38;;;;;;;10.65;7.80;;;;;;;20.18;69.59;99769.38;20921220;28;20246;-85
2023/08/25 21:39:39;;;;;;;12.00;8.85;;;;;;;19.44;72.82;99770.91;20917130;28;20227;-83
2023/08/25 21:49:42;;;;;;;14.65;10.20;;;;;;;19.23;72.73;99785.84;20907576;28;20215;-84
2023/08/25 21:59:44;;;;;;;13.55;9.35;;;;;;;19.43;72.11;99777.81;20912297;28;20285;-82
2023/08/25 22:09:47;;;;;;;14.10;9.65;;;;;;;19.20;73.30;99761.00;20913787;28;20219;-84
2023/08/25 22:19:49;;;;;;;18.65;11.65;;;;;;;19.20;72.93;99778.13;20917319;28;20563;-84
2023/08/25 22:29:52;;;;;;;15.80;11.13;;;;;;;19.01;72.63;99778.44;20903674;28;20236;-84
2023/08/25 22:39:54;;;;;;;20.45;13.27;;;;;;;19.02;72.40;99797.19;20912673;28;20224;-83
2023/08/25 22:49:57;;;;;;;16.83;11.77;;;;;;;19.20;71.38;99789.53;20906952;28;20311;-83
2023/08/25 22:59:59;;;;;;;21.48;13.77;;;;;;;18.90;72.56;99791.81;20919062;28;20206;-86
2023/08/25 23:10:03;;;;;;;21.10;13.93;;;;;;;18.94;72.97;99786.97;20934746;28;20315;-84
2023/08/25 23:20:07;;;;;;;22.63;14.63;;;;;;;19.00;72.39;99779.66;20945088;28;20188;-85
2023/08/25 23:30:10;;;;;;;32.35;17.50;;;;;;;18.47;74.72;99797.19;20931961;28;20315;-82
2023/08/25 23:40:12;;;;;;;25.08;16.77;;;;;;;19.02;72.62;99784.94;20938360;28;20674;-84
2023/08/25 23:50:15;;;;;;;26.65;18.20;;;;;;;19.12;68.94;99801.28;20943166;28;20654;-83
